Etusivu
METAR-TAF:

METAR-TAF

Lentoasemat :

Debrecen, Unkari

Leveyspiiri: 47-29N, Pituuspiiri: 021-36E, korkeus merenpinnasta: 108 m

Tämänhetkinen sää

Tämä raportti tehtiin 29 minuuttia sitten, kello 10.45 UTC
Tuuli 14 kn pohjoisesta
Lämpötila 18°C
Kosteus 39%
Ilmanpaine 1024 hPa
Näkyvyys 10 km tai enemmän
ei pilviä alle 1500 m:ssä eikä cumulonimbus-pilviä

METAR: LHDC 181045Z AUTO 36014KT CAVOK 18/04 Q1024 NOSIG

Aika: 13:14 (11:14 UTC)

Sääennuste

Tämä raportti tehtiin 2 tuntia ja 59 minuuttia sitten, kello 08.15 UTC
Ennuste voimassa 18. päivästä klo 09 UTC - 18. päivään klo 18 UTC
Tuuli 15 kn pohjoisesta/koillisesta
Näkyvyys 10 km tai enemmän
ei pilviä alle 1500 m:ssä eikä cumulonimbus-pilviä
Ajoittain
18. päivästä klo 09 UTC - 18. päivään klo 16 UTC
Tuuli 18 kn pohjoisesta/koillisesta puuskistuen 28 kn:hen

TAF: LHDC 180815Z 1809/1818 02015KT CAVOK TEMPO 1809/1816 02018G28KT

Säähavainnot ja -ennusteet yli 4000 lentoasemalta (METAR- ja TAF-raportit).

Käytössä olevat sääasemat on merkitty karttaan keltaisilla ja punaisilla pisteillä.

Aseta hiiri pisteen päälle nähdäksesi sääaseman nimen.

Klikkaa sitten nähdäksesi säähavainnot ja -ennusteet.

Kartan vaihtaminen: klikkaa mustalla rastilla varustettuja vihreitä pisteitä, niin voit zoomata sisään; viivalla varustettua vihreää pistettä, niin voit zoomata ulos tai vihreitä nuolia, niin pääset viereisille kartoille.


METAR-TAF: